createdAt,value
2024-03-02T00:02:01.739Z,0.75
2024-03-02T00:04:28.233Z,0.77
2024-03-02T00:06:56.374Z,0.80
2024-03-02T00:09:23.017Z,0.73
2024-03-02T00:11:49.950Z,0.90
2024-03-02T00:14:16.859Z,0.80
2024-03-02T00:16:43.770Z,0.80
2024-03-02T00:19:10.547Z,0.90
2024-03-02T00:21:37.225Z,0.90
2024-03-02T00:24:20.674Z,0.90
2024-03-02T00:26:47.428Z,0.90
2024-03-02T00:29:18.145Z,0.82
2024-03-02T00:31:44.720Z,0.80
2024-03-02T00:34:14.920Z,1.02
2024-03-02T00:36:41.463Z,0.80
2024-03-02T00:39:09.091Z,1.00
2024-03-02T00:41:37.063Z,1.00
2024-03-02T00:44:09.342Z,1.05
2024-03-02T00:46:37.826Z,1.35
2024-03-02T00:49:06.470Z,0.93
2024-03-02T00:51:35.762Z,1.20
2024-03-02T00:54:07.456Z,1.00
2024-03-02T00:56:35.972Z,1.10
2024-03-02T00:59:02.671Z,1.08
2024-03-02T01:01:29.306Z,1.20
2024-03-02T01:03:56.360Z,1.42
2024-03-02T01:06:23.846Z,1.73
2024-03-02T01:08:53.031Z,1.40
2024-03-02T01:11:23.392Z,1.38
2024-03-02T01:13:50.942Z,1.65
2024-03-02T01:16:17.728Z,1.40
2024-03-02T01:18:44.912Z,2.00
2024-03-02T01:21:11.560Z,2.25
2024-03-02T01:23:38.111Z,1.90
2024-03-02T01:26:04.759Z,2.10
2024-03-02T01:28:31.302Z,1.67
2024-03-02T01:30:57.935Z,1.67
2024-03-02T01:33:24.505Z,1.30
2024-03-02T01:35:51.121Z,1.50
2024-03-02T01:38:17.613Z,1.35
2024-03-02T01:40:45.756Z,1.60
2024-03-02T01:43:12.581Z,1.50
2024-03-02T01:45:39.442Z,1.40
2024-03-02T01:48:08.043Z,1.30
2024-03-02T01:50:35.823Z,1.33
2024-03-02T01:53:04.249Z,1.15
2024-03-02T01:55:31.862Z,1.20
2024-03-02T01:57:59.404Z,1.10
2024-03-02T02:00:27.241Z,1.10
2024-03-02T02:02:54.825Z,1.33
2024-03-02T02:05:21.398Z,0.93
2024-03-02T02:07:48.010Z,1.13
2024-03-02T02:10:14.617Z,1.08
2024-03-02T02:12:41.327Z,1.30
2024-03-02T02:15:28.203Z,1.27
2024-03-02T02:17:58.767Z,1.08
2024-03-02T02:20:26.123Z,1.13
2024-03-02T02:23:03.767Z,0.93
2024-03-02T02:25:31.128Z,1.23
2024-03-02T02:27:58.691Z,1.10
2024-03-02T02:30:27.929Z,1.02
2024-03-02T02:32:54.636Z,1.10
2024-03-02T02:35:21.248Z,1.02
2024-03-02T02:37:49.794Z,0.93
2024-03-02T02:40:17.227Z,1.17
2024-03-02T02:42:44.142Z,0.90
2024-03-02T02:45:12.044Z,0.88
2024-03-02T02:47:39.085Z,1.00
2024-03-02T02:50:08.178Z,0.77
2024-03-02T02:52:40.789Z,1.00
2024-03-02T02:55:12.231Z,0.80
2024-03-02T02:57:41.234Z,0.95
2024-03-02T03:00:15.458Z,0.70
2024-03-02T03:02:43.607Z,1.00
2024-03-02T03:05:11.958Z,0.90
2024-03-02T03:07:39.120Z,0.80
2024-03-02T03:10:07.663Z,0.77
2024-03-02T03:12:34.963Z,0.80
2024-03-02T03:15:01.946Z,0.80
2024-03-02T03:17:28.720Z,0.65
2024-03-02T03:19:56.031Z,0.90
2024-03-02T03:22:22.683Z,0.70
2024-03-02T03:24:49.236Z,0.77
2024-03-02T03:27:15.910Z,0.98
2024-03-02T03:29:42.489Z,0.80
2024-03-02T03:32:09.090Z,0.82
2024-03-02T03:34:35.824Z,0.70
2024-03-02T03:37:03.086Z,0.80
2024-03-02T03:39:29.853Z,0.82
2024-03-02T03:41:56.447Z,0.70
2024-03-02T03:44:22.984Z,0.95
2024-03-02T03:46:49.552Z,0.82
2024-03-02T03:49:16.189Z,0.75
2024-03-02T03:51:42.718Z,0.70
2024-03-02T03:54:09.456Z,0.88
2024-03-02T03:56:35.963Z,0.70
2024-03-02T03:59:02.806Z,0.65
2024-03-02T04:01:29.613Z,0.90
2024-03-02T04:03:56.317Z,0.95
2024-03-02T04:06:22.929Z,0.63
2024-03-02T04:08:49.466Z,0.73
2024-03-02T04:11:16.148Z,0.60
2024-03-02T04:13:42.691Z,0.73
2024-03-02T04:16:09.203Z,0.80
2024-03-02T04:18:36.231Z,0.80
2024-03-02T04:21:02.878Z,0.70
2024-03-02T04:23:29.458Z,1.00
2024-03-02T04:25:55.957Z,0.70
2024-03-02T04:28:22.465Z,0.70
2024-03-02T04:30:49.371Z,0.60
2024-03-02T04:33:16.128Z,0.70
2024-03-02T04:35:43.059Z,0.80
2024-03-02T04:38:09.547Z,0.73
2024-03-02T04:40:36.083Z,0.50
2024-03-02T04:43:02.709Z,0.75
2024-03-02T04:45:29.286Z,0.60
2024-03-02T04:47:55.828Z,0.70
2024-03-02T04:50:22.321Z,0.80
2024-03-02T04:52:48.804Z,0.73
2024-03-02T04:55:18.116Z,0.50
2024-03-02T04:57:44.728Z,0.60
2024-03-02T05:00:11.793Z,0.93
2024-03-02T05:02:38.319Z,0.50
2024-03-02T05:05:05.244Z,0.60
2024-03-02T05:07:31.744Z,0.60
2024-03-02T05:09:58.264Z,0.50
2024-03-02T05:12:50.439Z,0.60
2024-03-02T05:15:17.073Z,0.70
2024-03-02T05:17:44.441Z,0.70
2024-03-02T05:20:11.670Z,0.50
2024-03-02T05:22:39.267Z,0.75
2024-03-02T05:25:06.669Z,0.60
2024-03-02T05:27:34.313Z,0.60
2024-03-02T05:30:01.342Z,0.52
2024-03-02T05:32:28.021Z,0.50
2024-03-02T05:34:54.532Z,0.55
2024-03-02T05:37:21.177Z,0.60
2024-03-02T05:39:47.724Z,0.77
2024-03-02T05:42:15.421Z,0.50
2024-03-02T05:44:41.910Z,0.50
2024-03-02T05:47:10.011Z,0.52
2024-03-02T05:49:37.010Z,0.50
2024-03-02T05:52:04.482Z,0.65
2024-03-02T05:54:31.225Z,0.63
2024-03-02T05:56:57.789Z,0.60
2024-03-02T05:59:24.288Z,0.60
2024-03-02T06:01:52.876Z,0.45
2024-03-02T06:04:19.628Z,0.60
2024-03-02T06:06:46.236Z,0.45
2024-03-02T06:09:15.378Z,0.63
2024-03-02T06:11:42.038Z,0.50
2024-03-02T06:14:09.706Z,0.55
2024-03-02T06:16:36.421Z,0.40
2024-03-02T06:19:03.329Z,0.57
2024-03-02T06:21:30.112Z,0.60
2024-03-02T06:23:58.046Z,0.50
2024-03-02T06:26:26.127Z,0.50
2024-03-02T06:28:53.262Z,0.60
2024-03-02T06:31:20.151Z,0.50
2024-03-02T06:33:46.840Z,0.50
2024-03-02T06:36:13.649Z,0.60
2024-03-02T06:38:43.618Z,0.50
2024-03-02T06:41:10.478Z,0.40
2024-03-02T06:43:37.023Z,0.60
2024-03-02T06:46:03.799Z,0.70
2024-03-02T06:48:31.500Z,0.50
2024-03-02T06:50:59.463Z,0.40
2024-03-02T06:53:26.514Z,0.50
2024-03-02T06:55:53.090Z,0.68
2024-03-02T06:58:19.632Z,0.50
2024-03-02T07:00:46.391Z,0.50
2024-03-02T07:03:13.727Z,0.50
2024-03-02T07:05:40.631Z,0.50
2024-03-02T07:08:07.423Z,0.50
2024-03-02T07:10:33.983Z,0.50
2024-03-02T07:13:00.815Z,0.60
2024-03-02T07:15:45.861Z,0.55
2024-03-02T07:18:12.398Z,0.45
2024-03-02T07:20:40.178Z,0.50
2024-03-02T07:23:07.179Z,0.50
2024-03-02T07:28:04.106Z,0.52
2024-03-02T07:30:32.672Z,0.50
2024-03-02T07:33:01.011Z,0.43
2024-03-02T07:35:32.843Z,0.50
2024-03-02T07:37:59.460Z,0.70
2024-03-02T07:40:26.202Z,0.40
2024-03-02T07:42:52.845Z,0.47
2024-03-02T07:45:19.551Z,0.43
2024-03-02T07:47:47.406Z,0.40
2024-03-02T07:50:14.261Z,0.40
2024-03-02T07:52:40.773Z,0.60
2024-03-02T07:55:07.934Z,0.50
2024-03-02T07:57:34.653Z,0.57
2024-03-02T08:00:01.313Z,0.95
2024-03-02T08:02:27.930Z,0.60
2024-03-02T08:04:54.573Z,0.50
2024-03-02T08:07:21.112Z,0.68
2024-03-02T08:09:47.710Z,0.70
2024-03-02T08:12:14.256Z,1.38
2024-03-02T08:14:41.441Z,1.10
2024-03-02T08:17:10.696Z,4.50
2024-03-02T08:19:38.063Z,2.40
2024-03-02T08:22:05.053Z,0.82
2024-03-02T08:24:31.758Z,1.05
2024-03-02T08:27:00.192Z,0.80
2024-03-02T08:29:26.733Z,1.10
2024-03-02T08:31:54.532Z,0.85
2024-03-02T08:34:21.274Z,0.82
2024-03-02T08:36:48.012Z,0.93
2024-03-02T08:39:16.529Z,0.70
2024-03-02T08:41:45.495Z,0.98
2024-03-02T08:44:12.752Z,0.80
2024-03-02T08:46:40.556Z,1.05
2024-03-02T08:49:07.656Z,1.05
2024-03-02T08:51:34.555Z,0.85
2024-03-02T08:54:01.072Z,0.80
2024-03-02T08:56:27.662Z,0.80
2024-03-02T08:58:54.379Z,0.85
2024-03-02T09:01:21.206Z,0.82
2024-03-02T09:03:47.884Z,0.90
2024-03-02T09:06:15.288Z,0.85
2024-03-02T09:08:42.125Z,0.77
2024-03-02T09:11:08.741Z,0.80
2024-03-02T09:13:35.810Z,0.70
2024-03-02T09:16:02.461Z,0.60
2024-03-02T09:18:29.016Z,0.73
2024-03-02T09:20:55.531Z,1.00
2024-03-02T09:23:22.502Z,0.70
2024-03-02T09:25:49.076Z,0.60
2024-03-02T09:28:18.730Z,0.80
2024-03-02T09:30:45.368Z,0.80
2024-03-02T09:35:41.271Z,1.10
2024-03-02T09:38:08.087Z,0.70
2024-03-02T09:40:34.758Z,0.60
2024-03-02T09:43:01.611Z,0.80
2024-03-02T09:45:28.520Z,0.60
2024-03-02T09:47:56.156Z,0.70
2024-03-02T09:50:22.822Z,0.80
2024-03-02T09:52:50.758Z,0.63
2024-03-02T09:55:19.112Z,0.80
2024-03-02T09:57:46.904Z,0.70
2024-03-02T10:00:16.116Z,0.80
2024-03-02T10:02:43.570Z,0.85
2024-03-02T10:05:10.574Z,0.80
2024-03-02T10:07:37.159Z,0.75
2024-03-02T10:10:16.953Z,0.80
2024-03-02T10:12:43.655Z,0.70
2024-03-02T10:15:11.052Z,0.65
2024-03-02T10:17:38.034Z,0.80
2024-03-02T10:20:24.488Z,0.80
2024-03-02T10:22:51.235Z,0.70
2024-03-02T10:28:07.078Z,9.77
2024-03-02T10:30:37.198Z,5.13
2024-03-02T10:33:04.690Z,4.38
2024-03-02T10:35:37.552Z,8.75
2024-03-02T10:38:06.604Z,5.25
2024-03-02T10:40:33.716Z,6.45
2024-03-02T10:43:03.077Z,4.68
2024-03-02T10:45:30.678Z,4.43
2024-03-02T10:47:57.898Z,3.67
2024-03-02T10:50:25.819Z,3.40
2024-03-02T10:52:52.518Z,3.15
2024-03-02T10:55:19.722Z,3.15
2024-03-02T10:57:58.378Z,3.03
2024-03-02T11:00:35.097Z,2.65
2024-03-02T11:03:11.744Z,2.95
2024-03-02T11:05:41.167Z,2.67
2024-03-02T11:08:09.356Z,2.65
2024-03-02T11:10:38.665Z,2.30
2024-03-02T11:13:09.611Z,2.50
2024-03-02T11:15:38.026Z,2.72
2024-03-02T11:18:09.790Z,2.40
2024-03-02T11:20:39.765Z,2.50
2024-03-02T11:23:08.051Z,2.17
2024-03-02T11:25:35.225Z,2.30
2024-03-02T11:28:07.107Z,2.30
2024-03-02T11:30:34.213Z,1.98
2024-03-02T11:33:02.110Z,2.30
2024-03-02T11:35:29.735Z,2.25
2024-03-02T11:37:56.607Z,1.90
2024-03-02T11:40:23.397Z,2.17
2024-03-02T11:42:50.054Z,1.75
2024-03-02T11:45:24.181Z,1.58
2024-03-02T11:47:58.903Z,1.80
2024-03-02T11:50:35.493Z,2.15
2024-03-02T11:53:02.433Z,1.80
2024-03-02T11:55:31.324Z,1.60
2024-03-02T11:57:59.347Z,1.65
2024-03-02T12:00:26.001Z,1.55
2024-03-02T12:03:22.764Z,1.58
2024-03-02T12:05:53.733Z,1.65
2024-03-02T12:08:20.573Z,1.60
2024-03-02T12:11:01.922Z,1.55
2024-03-02T12:13:29.114Z,1.95
2024-03-02T12:15:58.364Z,1.55
2024-03-02T12:18:26.386Z,1.80
2024-03-02T12:20:54.029Z,1.30
2024-03-02T12:23:21.046Z,1.45
2024-03-02T12:25:47.919Z,1.40
2024-03-02T12:28:14.480Z,1.30
2024-03-02T12:30:41.271Z,1.50
2024-03-02T12:33:07.927Z,1.60
2024-03-02T12:35:34.464Z,1.65
2024-03-02T12:38:00.970Z,1.52
2024-03-02T12:40:28.520Z,1.30
2024-03-02T12:42:55.232Z,1.10
2024-03-02T12:45:25.835Z,1.30
2024-03-02T12:47:53.269Z,1.00
2024-03-02T12:50:20.502Z,1.38
2024-03-02T12:52:54.368Z,1.25
2024-03-02T12:55:22.745Z,1.00
2024-03-02T12:57:51.670Z,1.20
2024-03-02T13:00:20.160Z,1.10
2024-03-02T13:02:47.385Z,1.33
2024-03-02T13:05:14.758Z,1.30
2024-03-02T13:07:42.044Z,1.17
2024-03-02T13:10:10.116Z,1.17
2024-03-02T13:12:38.037Z,1.10
2024-03-02T13:15:06.346Z,1.08
2024-03-02T13:17:37.986Z,1.13
2024-03-02T13:20:09.449Z,0.90
2024-03-02T13:22:36.308Z,1.00
2024-03-02T13:25:07.425Z,1.00
2024-03-02T13:27:34.774Z,0.95
2024-03-02T13:30:03.771Z,1.10
2024-03-02T13:32:30.316Z,0.93
2024-03-02T13:34:56.866Z,1.05
2024-03-02T13:37:23.632Z,0.90
2024-03-02T13:39:50.582Z,1.00
2024-03-02T13:42:17.978Z,1.13
2024-03-02T13:44:48.417Z,1.10
2024-03-02T13:47:15.276Z,0.82
2024-03-02T13:49:45.040Z,0.95
2024-03-02T13:52:12.279Z,1.20
2024-03-02T13:54:40.483Z,1.00
2024-03-02T13:57:08.424Z,1.10
2024-03-02T13:59:38.721Z,1.02
2024-03-02T14:02:09.827Z,1.00
2024-03-02T14:04:37.339Z,1.10
2024-03-02T14:07:04.833Z,1.00
2024-03-02T14:09:31.759Z,0.90
2024-03-02T14:11:58.512Z,0.80
2024-03-02T14:14:25.509Z,0.85
2024-03-02T14:16:52.463Z,0.80
2024-03-02T14:19:19.473Z,0.90
2024-03-02T14:21:46.469Z,1.00
2024-03-02T14:24:13.013Z,0.90
2024-03-02T14:26:39.869Z,1.00
2024-03-02T14:29:06.464Z,0.75
2024-03-02T14:31:33.081Z,0.75
2024-03-02T14:34:00.713Z,1.08
2024-03-02T14:36:29.197Z,0.85
2024-03-02T14:38:56.430Z,0.82
2024-03-02T14:41:25.105Z,0.90
2024-03-02T14:43:51.986Z,0.70
2024-03-02T14:46:19.225Z,0.80
2024-03-02T14:48:47.367Z,0.80
2024-03-02T14:51:14.704Z,0.80
2024-03-02T14:53:41.399Z,0.80
2024-03-02T14:56:08.229Z,0.90
2024-03-02T14:58:36.509Z,0.70
2024-03-02T15:01:03.235Z,0.82
2024-03-02T15:03:30.006Z,0.70
2024-03-02T15:05:57.961Z,0.60
2024-03-02T15:08:24.534Z,1.10
2024-03-02T15:10:51.191Z,0.60
2024-03-02T15:13:17.780Z,0.70
2024-03-02T15:15:44.429Z,0.90
2024-03-02T15:18:11.051Z,0.70
2024-03-02T15:20:37.637Z,0.85
2024-03-02T15:23:04.421Z,0.55
2024-03-02T15:25:30.950Z,0.80
2024-03-02T15:27:57.538Z,0.70
2024-03-02T15:30:24.172Z,0.63
2024-03-02T15:32:50.882Z,0.88
2024-03-02T15:35:17.369Z,0.75
2024-03-02T15:37:44.041Z,0.63
2024-03-02T15:40:11.011Z,0.85
2024-03-02T15:42:37.872Z,0.70
2024-03-02T15:45:05.715Z,0.80
2024-03-02T15:47:32.404Z,0.63
2024-03-02T15:49:58.905Z,0.60
2024-03-02T15:52:25.425Z,0.75
2024-03-02T15:54:51.979Z,0.73
2024-03-02T15:57:18.811Z,0.80
2024-03-02T15:59:45.552Z,0.70
2024-03-02T16:02:12.387Z,0.60
2024-03-02T16:04:39.189Z,1.02
2024-03-02T16:07:05.934Z,0.80
2024-03-02T16:09:32.654Z,0.70
2024-03-02T16:11:59.258Z,0.70
2024-03-02T16:14:26.007Z,0.57
2024-03-02T16:16:52.579Z,0.80
2024-03-02T16:19:29.047Z,0.70
2024-03-02T16:21:59.365Z,0.90
2024-03-02T16:24:26.012Z,0.70
2024-03-02T16:26:52.636Z,1.20
2024-03-02T16:29:19.217Z,0.88
2024-03-02T16:31:45.740Z,1.02
2024-03-02T16:34:13.018Z,0.77
2024-03-02T16:36:41.450Z,1.00
2024-03-02T16:39:10.135Z,0.90
2024-03-02T16:41:37.022Z,0.60
2024-03-02T16:44:07.095Z,0.90
2024-03-02T16:46:34.293Z,0.77
2024-03-02T16:49:00.990Z,0.88
2024-03-02T16:51:27.626Z,0.88
2024-03-02T16:53:54.140Z,0.70
2024-03-02T16:56:20.668Z,0.85
2024-03-02T16:58:47.204Z,0.90
2024-03-02T17:01:13.767Z,0.90
2024-03-02T17:03:40.367Z,0.80
2024-03-02T17:06:06.946Z,0.82
2024-03-02T17:08:33.494Z,0.93
2024-03-02T17:11:00.049Z,0.80
2024-03-02T17:13:26.546Z,1.00
2024-03-02T17:15:53.045Z,0.80
2024-03-02T17:18:19.577Z,0.73
2024-03-02T17:20:46.106Z,0.73
2024-03-02T17:23:12.636Z,0.70
2024-03-02T17:25:39.189Z,0.80
2024-03-02T17:28:22.304Z,0.80
2024-03-02T17:30:48.923Z,0.80
2024-03-02T17:33:15.458Z,0.75
2024-03-02T17:35:42.417Z,0.85
2024-03-02T17:38:08.936Z,0.80
2024-03-02T17:40:35.493Z,1.10
2024-03-02T17:43:02.101Z,0.70
2024-03-02T17:45:28.667Z,0.90
2024-03-02T17:47:55.196Z,0.80
2024-03-02T17:50:21.803Z,0.90
2024-03-02T17:52:48.904Z,1.00
2024-03-02T17:55:15.560Z,1.00
2024-03-02T17:57:42.189Z,0.73
2024-03-02T18:00:15.157Z,0.90
2024-03-02T18:02:42.230Z,0.90
2024-03-02T18:05:09.973Z,0.70
2024-03-02T18:07:37.579Z,1.10
2024-03-02T18:10:05.473Z,0.90
2024-03-02T18:12:32.653Z,0.90
2024-03-02T18:14:59.447Z,0.80
2024-03-02T18:17:26.309Z,0.80
2024-03-02T18:19:53.663Z,0.90
2024-03-02T18:22:20.872Z,0.90
2024-03-02T18:24:47.791Z,0.80
2024-03-02T18:27:14.383Z,0.93
2024-03-02T18:29:40.960Z,0.85
2024-03-02T18:32:07.800Z,0.80
2024-03-02T18:34:37.093Z,1.10
2024-03-02T18:37:05.718Z,0.77
2024-03-02T18:39:32.640Z,1.10
2024-03-02T18:41:59.295Z,1.00
2024-03-02T18:44:26.034Z,1.00
2024-03-02T18:46:52.730Z,0.70
2024-03-02T18:49:19.359Z,0.90
2024-03-02T18:51:46.014Z,0.90
2024-03-02T18:54:17.337Z,0.98
2024-03-02T18:56:43.940Z,0.88
2024-03-02T18:59:10.498Z,0.73
2024-03-02T19:01:37.144Z,1.02
2024-03-02T19:04:03.980Z,0.90
2024-03-02T19:06:30.571Z,0.90
2024-03-02T19:08:58.944Z,1.15
2024-03-02T19:11:26.463Z,1.10
2024-03-02T19:13:53.507Z,0.90
2024-03-02T19:16:20.032Z,1.10
2024-03-02T19:18:46.630Z,0.80
2024-03-02T19:21:13.131Z,0.95
2024-03-02T19:23:44.117Z,0.95
2024-03-02T19:26:19.087Z,0.90
2024-03-02T19:28:46.335Z,0.95
2024-03-02T19:31:16.159Z,0.90
2024-03-02T19:33:43.098Z,0.95
2024-03-02T19:36:09.692Z,1.13
2024-03-02T19:38:36.421Z,0.90
2024-03-02T19:41:03.246Z,1.10
2024-03-02T19:43:29.742Z,0.93
2024-03-02T19:45:56.318Z,0.80
2024-03-02T19:48:23.686Z,1.10
2024-03-02T19:50:51.389Z,1.00
2024-03-02T19:53:18.057Z,1.10
2024-03-02T19:55:45.582Z,1.00
2024-03-02T19:58:12.377Z,1.13
2024-03-02T20:00:39.650Z,1.05
2024-03-02T20:03:06.423Z,1.08
2024-03-02T20:05:32.976Z,1.00
2024-03-02T20:07:59.548Z,1.08
2024-03-02T20:10:26.093Z,1.08
2024-03-02T20:12:52.747Z,1.30
2024-03-02T20:15:20.925Z,1.20
2024-03-02T20:17:47.802Z,1.05
2024-03-02T20:20:15.465Z,1.02
2024-03-02T20:22:41.992Z,1.13
2024-03-02T20:25:11.007Z,1.27
2024-03-02T20:27:37.744Z,1.10
2024-03-02T20:30:07.539Z,1.00
2024-03-02T20:32:34.195Z,1.15
2024-03-02T20:35:01.334Z,1.20
2024-03-02T20:37:29.039Z,1.00
2024-03-02T20:39:59.660Z,1.35
2024-03-02T20:42:29.758Z,2.00
2024-03-02T20:44:56.302Z,1.10
2024-03-02T20:47:23.981Z,1.10
2024-03-02T20:49:52.283Z,1.13
2024-03-02T20:52:20.956Z,1.10
2024-03-02T20:54:47.834Z,1.13
2024-03-02T20:57:14.439Z,1.00
2024-03-02T20:59:41.201Z,1.17
2024-03-02T21:02:07.791Z,1.23
2024-03-02T21:04:34.580Z,1.33
2024-03-02T21:07:01.250Z,1.08
2024-03-02T21:09:27.780Z,1.20
2024-03-02T21:11:54.383Z,1.05
2024-03-02T21:14:20.884Z,1.25
2024-03-02T21:16:49.641Z,0.88
2024-03-02T21:19:16.277Z,1.00
2024-03-02T21:21:43.087Z,1.00
2024-03-02T21:24:10.794Z,1.10
2024-03-02T21:26:42.185Z,0.80
2024-03-02T21:29:09.666Z,1.20
2024-03-02T21:31:36.202Z,1.10
2024-03-02T21:34:02.982Z,0.85
2024-03-02T21:36:29.559Z,0.90
2024-03-02T21:38:56.061Z,1.00
2024-03-02T21:41:23.616Z,1.20
2024-03-02T21:43:50.099Z,0.95
2024-03-02T21:46:17.378Z,1.10
2024-03-02T21:48:44.336Z,1.02
2024-03-02T21:51:17.155Z,0.88
2024-03-02T21:53:44.490Z,1.10
2024-03-02T21:56:13.057Z,0.82
2024-03-02T21:58:40.412Z,0.90
2024-03-02T22:01:07.128Z,0.98
2024-03-02T22:03:33.875Z,1.05
2024-03-02T22:06:00.514Z,1.02
2024-03-02T22:08:28.481Z,1.10
2024-03-02T22:10:58.085Z,1.00
2024-03-02T22:13:24.720Z,0.98
2024-03-02T22:15:51.325Z,1.08
2024-03-02T22:18:17.963Z,1.08
2024-03-02T22:20:44.482Z,1.10
2024-03-02T22:23:11.164Z,1.00
2024-03-02T22:25:38.155Z,0.80
2024-03-02T22:28:05.020Z,1.10
2024-03-02T22:30:31.618Z,1.20
2024-03-02T22:32:58.483Z,1.00
2024-03-02T22:35:25.894Z,0.93
2024-03-02T22:37:52.383Z,0.93
2024-03-02T22:40:19.147Z,0.90
2024-03-02T22:42:45.803Z,0.75
2024-03-02T22:45:12.346Z,1.10
2024-03-02T22:47:39.145Z,0.90
2024-03-02T22:50:08.882Z,0.90
2024-03-02T22:52:36.835Z,0.90
2024-03-02T22:55:03.961Z,1.00
2024-03-02T22:57:30.543Z,0.90
2024-03-02T22:59:57.055Z,1.00
2024-03-02T23:02:25.001Z,0.80
2024-03-02T23:04:51.684Z,1.00
2024-03-02T23:07:22.612Z,0.98
2024-03-02T23:09:49.903Z,0.90
2024-03-02T23:12:16.701Z,1.00
2024-03-02T23:14:43.283Z,0.80
2024-03-02T23:17:09.948Z,0.98
2024-03-02T23:19:36.590Z,0.90
2024-03-02T23:22:03.374Z,0.90
2024-03-02T23:24:30.010Z,0.90
2024-03-02T23:26:56.523Z,0.77
2024-03-02T23:29:23.026Z,0.75
2024-03-02T23:31:49.512Z,1.00
2024-03-02T23:34:16.099Z,1.00
2024-03-02T23:36:42.617Z,1.00
2024-03-02T23:39:11.288Z,1.00
2024-03-02T23:41:38.032Z,0.80
2024-03-02T23:44:08.552Z,0.73
2024-03-02T23:46:36.013Z,1.00
2024-03-02T23:49:02.633Z,1.00
2024-03-02T23:51:29.282Z,0.80
2024-03-02T23:53:56.507Z,1.00
2024-03-02T23:56:23.034Z,0.95
2024-03-02T23:58:50.171Z,0.80
